Time;durP1;ratioP1;P1;durP2;ratioP2;P2;SDS_P1;SDS_P2;PMS_P1;PMS_P2;Temp;Humidity;BMP_temperature;BMP_pressure;BME280_temperature;BME280_humidity;BME280_pressure;Samples;Min_cycle;Max_cycle;Signal;HPM_P1;HPM_P2
2023/07/31 00:00:00;;;;;;;8.07;3.03;;;;;;;20.81;100.00;92831.25;5066146;28;20040;-79
2023/07/31 00:02:28;;;;;;;9.00;3.78;;;;;;;20.64;100.00;92816.88;5063774;28;20088;-81
2023/07/31 00:04:55;;;;;;;7.35;3.90;;;;;;;20.72;100.00;92822.50;5061953;28;20402;-81
2023/07/31 00:07:21;;;;;;;10.38;4.05;;;;;;;20.70;100.00;92820.97;5065374;28;20056;-81
2023/07/31 00:09:48;;;;;;;9.48;3.30;;;;;;;20.67;100.00;92821.53;5065956;28;20118;-81
2023/07/31 00:12:15;;;;;;;8.80;4.28;;;;;;;20.49;100.00;92801.44;5063470;28;20070;-81
2023/07/31 00:14:41;;;;;;;7.40;3.35;;;;;;;20.54;100.00;92817.81;5064635;28;20052;-81
2023/07/31 00:17:08;;;;;;;6.55;3.50;;;;;;;20.46;100.00;92809.81;5064012;28;20110;-81
2023/07/31 00:19:37;;;;;;;6.18;3.38;;;;;;;20.48;100.00;92812.91;5064459;28;20391;-82
2023/07/31 00:22:04;;;;;;;7.70;3.35;;;;;;;20.37;100.00;92809.69;5064417;28;20045;-81
2023/07/31 00:24:31;;;;;;;6.82;3.97;;;;;;;20.12;100.00;92788.84;5062508;28;20106;-81
2023/07/31 00:26:56;;;;;;;4.05;2.50;;;;;;;19.77;100.00;92783.72;5062991;28;20111;-81
2023/07/31 00:29:23;;;;;;;5.65;3.40;;;;;;;19.49;100.00;92767.88;5065383;28;20045;-82
2023/07/31 00:31:50;;;;;;;4.75;2.75;;;;;;;19.35;100.00;92767.75;5059618;28;20053;-82
2023/07/31 00:34:17;;;;;;;5.15;3.38;;;;;;;19.34;100.00;92768.00;5065435;28;20110;-82
2023/07/31 00:36:45;;;;;;;4.90;3.17;;;;;;;19.06;100.00;92762.53;5062924;28;20045;-81
2023/07/31 00:39:11;;;;;;;5.20;3.35;;;;;;;19.06;100.00;92776.34;5064359;28;20057;-81
2023/07/31 00:41:38;;;;;;;6.68;3.80;;;;;;;19.05;100.00;92792.22;5062633;28;20045;-82
2023/07/31 00:44:05;;;;;;;5.25;3.65;;;;;;;18.93;100.00;92774.34;5064501;28;20102;-82
2023/07/31 00:46:32;;;;;;;6.82;3.70;;;;;;;18.96;100.00;92784.97;5064722;28;20044;-82
2023/07/31 00:48:58;;;;;;;5.18;3.75;;;;;;;19.15;100.00;92784.31;5062251;28;20052;-82
2023/07/31 00:51:25;;;;;;;7.82;4.07;;;;;;;19.25;100.00;92783.44;5062933;28;20385;-81
2023/07/31 00:53:55;;;;;;;7.00;4.78;;;;;;;19.03;100.00;92765.66;5068691;28;20494;-82
2023/07/31 00:56:22;;;;;;;7.63;5.72;;;;;;;19.08;100.00;92782.03;5063953;28;20045;-81
2023/07/31 00:58:49;;;;;;;7.53;5.22;;;;;;;19.05;100.00;92764.38;5068938;28;20613;-81
2023/07/31 01:01:16;;;;;;;7.78;5.80;;;;;;;18.99;100.00;92757.63;5067744;28;20568;-80
2023/07/31 01:03:44;;;;;;;8.65;5.80;;;;;;;19.23;100.00;92780.34;5066682;28;20049;-81
2023/07/31 01:06:18;;;;;;;7.90;6.32;;;;;;;19.35;100.00;92777.41;5068635;28;20143;-81
2023/07/31 01:08:55;;;;;;;9.15;6.90;;;;;;;18.76;100.00;92726.06;5061834;28;20082;-81
2023/07/31 01:11:31;;;;;;;9.07;6.53;;;;;;;19.01;100.00;92759.94;5067342;28;20044;-81
2023/07/31 01:13:58;;;;;;;8.43;6.65;;;;;;;19.06;100.00;92765.91;5067311;28;20048;-81
2023/07/31 01:16:26;;;;;;;9.00;7.03;;;;;;;18.91;100.00;92750.41;5065067;28;20880;-80
2023/07/31 01:18:53;;;;;;;12.40;9.45;;;;;;;18.90;100.00;92774.88;5068103;28;20045;-81
2023/07/31 01:21:38;;;;;;;9.88;7.57;;;;;;;19.00;100.00;92776.59;5068438;28;20057;-81
2023/07/31 01:24:37;;;;;;;13.95;8.80;;;;;;;18.92;100.00;92763.13;5068888;28;20045;-81
2023/07/31 01:27:10;;;;;;;12.38;9.07;;;;;;;18.94;100.00;92757.66;5044072;28;20483;-79
2023/07/31 01:29:44;;;;;;;12.07;9.32;;;;;;;19.11;100.00;92774.75;5066446;28;20045;-79
2023/07/31 01:32:12;;;;;;;16.90;10.50;;;;;;;18.90;100.00;92767.84;5064890;28;20056;-79
2023/07/31 01:34:42;;;;;;;13.45;10.13;;;;;;;18.80;100.00;92773.13;5065216;28;20041;-81
2023/07/31 01:37:08;;;;;;;15.90;11.48;;;;;;;18.81;100.00;92761.66;5064079;28;20052;-80
2023/07/31 01:39:35;;;;;;;17.40;12.55;;;;;;;18.67;100.00;92740.69;5067822;28;20049;-81
2023/07/31 01:42:02;;;;;;;20.58;13.48;;;;;;;18.68;100.00;92769.03;5066651;28;20094;-80
2023/07/31 01:44:30;;;;;;;18.08;13.60;;;;;;;18.74;100.00;92774.22;5067641;28;20049;-80
2023/07/31 01:46:58;;;;;;;21.60;15.35;;;;;;;18.83;100.00;92775.16;5066624;28;20159;-81
2023/07/31 01:49:25;;;;;;;20.67;14.13;;;;;;;18.87;100.00;92775.41;5066299;28;20047;-81
2023/07/31 01:51:52;;;;;;;22.65;15.57;;;;;;;18.80;100.00;92776.50;5067408;28;20531;-83
2023/07/31 01:54:19;;;;;;;21.58;15.98;;;;;;;18.66;100.00;92767.75;5066965;28;20048;-82
2023/07/31 01:56:45;;;;;;;23.35;14.77;;;;;;;18.55;100.00;92765.22;5068728;28;20101;-83
2023/07/31 01:59:12;;;;;;;21.85;15.43;;;;;;;18.59;100.00;92775.84;5066172;28;20044;-83
2023/07/31 02:01:40;;;;;;;18.63;13.95;;;;;;;18.47;100.00;92778.03;5065764;28;20048;-82
2023/07/31 02:04:07;;;;;;;19.80;14.40;;;;;;;18.59;100.00;92773.25;5062633;28;20060;-83
2023/07/31 02:06:34;;;;;;;18.90;14.48;;;;;;;18.69;100.00;92777.59;5067952;28;20052;-81
2023/07/31 02:09:00;;;;;;;20.00;14.20;;;;;;;18.73;100.00;92773.44;5065996;28;20118;-81
2023/07/31 02:11:27;;;;;;;18.33;13.75;;;;;;;18.89;100.00;92779.28;5065359;28;20551;-80
2023/07/31 02:13:54;;;;;;;19.85;14.88;;;;;;;18.98;100.00;92779.47;5066772;28;20056;-80
2023/07/31 02:16:20;;;;;;;18.90;13.73;;;;;;;19.06;100.00;92781.53;5064770;28;20074;-79
2023/07/31 02:18:48;;;;;;;17.90;13.70;;;;;;;19.19;100.00;92779.34;5067299;28;20555;-79
2023/07/31 02:21:15;;;;;;;20.23;13.63;;;;;;;19.23;100.00;92765.53;5067546;28;20506;-79
2023/07/31 02:23:42;;;;;;;18.60;13.82;;;;;;;19.35;100.00;92780.75;5062838;28;20048;-79
2023/07/31 02:26:09;;;;;;;17.45;12.48;;;;;;;19.45;100.00;92786.94;5067516;28;20109;-80
2023/07/31 02:28:35;;;;;;;19.52;13.43;;;;;;;19.55;100.00;92788.66;5067506;28;20044;-79
2023/07/31 02:31:02;;;;;;;17.92;13.07;;;;;;;19.66;100.00;92784.13;5066305;28;20052;-79
2023/07/31 02:33:29;;;;;;;17.13;12.07;;;;;;;19.71;100.00;92790.06;5065701;28;20033;-80
2023/07/31 02:35:57;;;;;;;21.27;11.90;;;;;;;19.79;100.00;92785.28;5065657;28;20053;-80
2023/07/31 02:38:24;;;;;;;18.35;12.38;;;;;;;19.88;100.00;92781.81;5065526;28;20123;-79
2023/07/31 02:40:50;;;;;;;16.17;11.65;;;;;;;19.96;100.00;92792.66;5066536;28;20049;-80
2023/07/31 02:43:17;;;;;;;15.77;10.88;;;;;;;20.00;100.00;92793.69;5062598;28;20052;-79
2023/07/31 02:45:44;;;;;;;15.25;10.73;;;;;;;20.01;100.00;92780.38;5066092;28;20048;-79
2023/07/31 02:48:10;;;;;;;14.45;10.63;;;;;;;20.12;100.00;92794.06;5065739;28;20049;-79
2023/07/31 02:50:37;;;;;;;14.27;10.82;;;;;;;20.18;100.00;92796.63;5060888;28;20553;-79
2023/07/31 02:53:05;;;;;;;13.75;10.18;;;;;;;20.24;100.00;92798.88;5065705;28;20044;-80
2023/07/31 02:55:32;;;;;;;16.58;10.25;;;;;;;20.14;100.00;92804.97;5063451;28;20498;-79
2023/07/31 02:57:59;;;;;;;13.15;10.15;;;;;;;20.10;100.00;92798.00;5065288;28;20095;-79
2023/07/31 03:00:26;;;;;;;14.80;10.23;;;;;;;20.12;100.00;92801.09;5066715;28;20048;-79
2023/07/31 03:02:52;;;;;;;14.73;10.20;;;;;;;20.05;100.00;92806.66;5066374;28;20502;-78
2023/07/31 03:05:19;;;;;;;16.13;10.75;;;;;;;19.95;100.00;92796.31;5065097;28;20056;-79
2023/07/31 03:07:46;;;;;;;15.73;10.60;;;;;;;20.00;100.00;92797.06;5062575;28;20438;-79
2023/07/31 03:10:14;;;;;;;15.10;10.73;;;;;;;20.03;100.00;92793.91;5066385;28;20098;-79
2023/07/31 03:12:41;;;;;;;16.88;11.60;;;;;;;20.03;100.00;92793.13;5063768;28;20497;-80
2023/07/31 03:15:09;;;;;;;20.13;10.95;;;;;;;20.05;100.00;92798.84;5060703;28;20564;-79
2023/07/31 03:17:36;;;;;;;14.98;10.27;;;;;;;20.11;100.00;92805.56;5063315;28;20037;-79
2023/07/31 03:20:03;;;;;;;14.73;11.38;;;;;;;20.15;100.00;92801.31;5064828;28;20044;-79
2023/07/31 03:22:30;;;;;;;14.82;10.25;;;;;;;20.15;100.00;92809.13;5066482;28;20086;-79
2023/07/31 03:24:56;;;;;;;17.85;9.75;;;;;;;20.13;100.00;92808.66;5066287;28;20048;-79
2023/07/31 03:27:25;;;;;;;14.77;10.98;;;;;;;20.21;100.00;92809.06;5066085;28;20048;-79
2023/07/31 03:29:51;;;;;;;16.10;11.40;;;;;;;20.07;100.00;92796.72;5066418;28;20049;-79
2023/07/31 03:32:18;;;;;;;13.63;9.55;;;;;;;20.23;100.00;92812.97;5065052;28;20497;-79
2023/07/31 03:34:45;;;;;;;15.68;10.50;;;;;;;20.24;100.00;92819.75;5065405;28;20097;-79
2023/07/31 03:37:12;;;;;;;14.10;10.65;;;;;;;20.25;100.00;92818.69;5063054;28;20048;-79
2023/07/31 03:39:38;;;;;;;16.33;10.93;;;;;;;20.26;100.00;92812.41;5065194;28;20048;-79
2023/07/31 03:42:06;;;;;;;14.93;10.20;;;;;;;20.27;100.00;92821.78;5065130;28;20048;-79
2023/07/31 03:44:34;;;;;;;16.92;10.90;;;;;;;20.31;100.00;92823.84;5064147;28;20559;-79
2023/07/31 03:47:01;;;;;;;15.27;10.68;;;;;;;19.97;100.00;92818.50;5065779;28;20399;-80
2023/07/31 03:49:27;;;;;;;17.90;11.93;;;;;;;19.80;100.00;92828.56;5063939;28;20109;-79
2023/07/31 03:51:55;;;;;;;17.15;11.98;;;;;;;19.81;100.00;92836.06;5065579;28;20052;-80
2023/07/31 03:54:21;;;;;;;20.70;13.10;;;;;;;19.84;100.00;92835.53;5062938;28;20560;-80
2023/07/31 03:56:48;;;;;;;21.20;13.48;;;;;;;19.90;100.00;92837.03;5064842;28;20045;-79
2023/07/31 03:59:15;;;;;;;19.90;13.10;;;;;;;19.79;100.00;92832.19;5065707;28;20445;-79
2023/07/31 04:01:43;;;;;;;19.35;12.40;;;;;;;19.81;100.00;92832.72;5065680;28;20098;-79
2023/07/31 04:04:10;;;;;;;19.58;13.80;;;;;;;19.84;100.00;92838.13;5065160;28;20107;-79
2023/07/31 04:06:36;;;;;;;21.58;14.43;;;;;;;19.85;100.00;92820.66;5063928;28;20470;-79
2023/07/31 04:09:03;;;;;;;22.00;12.98;;;;;;;20.02;100.00;92834.06;5063105;28;20052;-79
2023/07/31 04:11:30;;;;;;;21.30;14.25;;;;;;;20.02;100.00;92834.06;5064128;28;20052;-79
2023/07/31 04:13:57;;;;;;;19.25;12.80;;;;;;;20.12;100.00;92835.00;5064881;28;20053;-79
2023/07/31 04:16:23;;;;;;;19.33;13.07;;;;;;;20.09;100.00;92838.19;5062348;28;20102;-79
2023/07/31 04:18:51;;;;;;;19.77;14.18;;;;;;;20.15;100.00;92845.63;5064801;28;20044;-79
2023/07/31 04:21:18;;;;;;;22.35;14.02;;;;;;;20.05;100.00;92851.00;5063849;28;20056;-80
2023/07/31 04:23:45;;;;;;;24.05;14.73;;;;;;;19.77;100.00;92850.72;5061728;28;20511;-80
2023/07/31 04:26:12;;;;;;;19.67;12.95;;;;;;;19.66;100.00;92846.66;5065043;28;20048;-79
2023/07/31 04:28:38;;;;;;;22.13;14.48;;;;;;;19.68;100.00;92858.38;5067115;28;20052;-79
2023/07/31 04:31:05;;;;;;;26.08;14.68;;;;;;;19.79;100.00;92853.81;5067375;28;20553;-79
2023/07/31 04:33:32;;;;;;;20.13;13.65;;;;;;;19.85;100.00;92855.31;5066055;28;20075;-80
2023/07/31 04:36:00;;;;;;;21.70;13.52;;;;;;;19.85;100.00;92857.13;5065833;28;20053;-80
2023/07/31 04:38:27;;;;;;;25.10;14.00;;;;;;;19.60;100.00;92856.34;5063703;28;20048;-81
2023/07/31 04:40:54;;;;;;;21.45;12.90;;;;;;;19.74;100.00;92853.88;5067297;28;20048;-80
2023/07/31 04:43:20;;;;;;;23.67;13.80;;;;;;;19.62;100.00;92839.38;5068773;28;20122;-81
2023/07/31 04:45:49;;;;;;;19.08;12.52;;;;;;;19.75;100.00;92843.19;5067459;28;20044;-81
2023/07/31 04:48:16;;;;;;;21.55;13.77;;;;;;;19.92;100.00;92844.56;5062984;28;20083;-81
2023/07/31 04:50:43;;;;;;;19.50;12.63;;;;;;;20.04;100.00;92849.41;5064995;28;20056;-81
2023/07/31 04:53:12;;;;;;;20.42;13.48;;;;;;;20.14;100.00;92849.31;5067711;28;20054;-81
2023/07/31 04:55:38;;;;;;;19.95;11.82;;;;;;;20.24;100.00;92855.47;5067639;28;20753;-80
2023/07/31 04:58:06;;;;;;;18.73;11.73;;;;;;;20.23;100.00;92839.03;5065768;28;20045;-81
2023/07/31 05:00:33;;;;;;;21.25;12.32;;;;;;;20.08;100.00;92839.22;5068457;28;20052;-80
2023/07/31 05:02:59;;;;;;;16.23;11.00;;;;;;;20.21;100.00;92848.97;5068177;28;20098;-81
2023/07/31 05:05:26;;;;;;;17.13;11.48;;;;;;;20.26;100.00;92842.91;5066653;28;20518;-81
2023/07/31 05:07:53;;;;;;;17.73;11.38;;;;;;;20.34;100.00;92839.72;5067750;28;20041;-80
2023/07/31 05:10:21;;;;;;;20.20;12.02;;;;;;;20.31;100.00;92855.16;5069282;28;20090;-80
2023/07/31 05:12:48;;;;;;;17.23;11.38;;;;;;;20.29;100.00;92837.91;5066377;28;20047;-81
2023/07/31 05:15:14;;;;;;;18.90;11.75;;;;;;;20.54;100.00;92846.50;5066163;28;20052;-81
2023/07/31 05:17:41;;;;;;;17.70;11.82;;;;;;;20.59;100.00;92845.66;5069212;28;20090;-80
2023/07/31 05:20:09;;;;;;;16.40;11.27;;;;;;;20.65;100.00;92849.75;5060351;28;20041;-81
2023/07/31 05:22:36;;;;;;;18.67;11.60;;;;;;;20.77;100.00;92849.34;5066985;28;20567;-80
2023/07/31 05:25:02;;;;;;;14.85;10.25;;;;;;;20.78;100.00;92839.69;5068926;28;20060;-80
2023/07/31 05:27:31;;;;;;;14.40;10.07;;;;;;;20.68;100.00;92848.41;5066978;28;20516;-80
2023/07/31 05:29:58;;;;;;;20.58;11.80;;;;;;;20.59;100.00;92847.50;5065958;28;20160;-82
2023/07/31 05:32:24;;;;;;;16.58;10.77;;;;;;;20.81;100.00;92855.53;5066992;28;20086;-82
2023/07/31 05:34:52;;;;;;;16.38;10.73;;;;;;;20.72;100.00;92864.28;5065120;28;20041;-83
2023/07/31 05:37:18;;;;;;;16.42;10.23;;;;;;;20.65;100.00;92854.97;5063788;28;20494;-82
2023/07/31 05:39:45;;;;;;;16.58;10.23;;;;;;;20.12;100.00;92809.72;5065361;28;21145;-82
2023/07/31 05:42:12;;;;;;;15.73;9.90;;;;;;;20.24;100.00;92856.25;5068247;28;20457;-82
2023/07/31 05:44:40;;;;;;;16.45;10.23;;;;;;;19.99;100.00;92844.25;5062228;28;20052;-82
2023/07/31 05:47:07;;;;;;;15.05;10.20;;;;;;;20.14;100.00;92861.59;5066332;28;20056;-81
2023/07/31 05:49:34;;;;;;;10.80;6.70;;;;;;;20.18;100.00;92859.19;5064746;28;20552;-82
2023/07/31 05:52:00;;;;;;;9.20;6.10;;;;;;;19.76;100.00;92859.56;5067850;28;20044;-83
2023/07/31 05:54:27;;;;;;;8.68;6.20;;;;;;;19.54;100.00;92865.25;5066953;28;20045;-82
2023/07/31 05:56:54;;;;;;;8.75;5.57;;;;;;;19.52;100.00;92860.31;5066039;28;20074;-82
2023/07/31 05:59:20;;;;;;;8.82;5.45;;;;;;;19.45;100.00;92852.06;5066574;28;20052;-82
2023/07/31 06:01:49;;;;;;;6.45;4.50;;;;;;;19.36;100.00;92873.47;5067594;28;20098;-83
2023/07/31 06:04:15;;;;;;;6.55;4.88;;;;;;;19.42;100.00;92868.22;5063121;28;20068;-84
2023/07/31 06:06:42;;;;;;;6.63;4.22;;;;;;;19.68;100.00;92884.44;5065248;28;20044;-84
2023/07/31 06:09:09;;;;;;;5.55;3.55;;;;;;;19.63;100.00;92885.22;5061306;28;20258;-84
2023/07/31 06:11:35;;;;;;;5.20;3.88;;;;;;;19.84;100.00;92879.03;5062022;28;20110;-82
2023/07/31 06:14:02;;;;;;;6.15;3.47;;;;;;;20.15;100.00;92878.78;5063820;28;20051;-82
2023/07/31 06:16:29;;;;;;;5.00;2.97;;;;;;;20.09;100.00;92883.25;5066639;28;20400;-82
2023/07/31 06:18:57;;;;;;;5.97;3.38;;;;;;;20.17;100.00;92876.66;5065195;28;20045;-82
2023/07/31 06:21:24;;;;;;;5.55;3.15;;;;;;;20.19;100.00;92879.00;5067571;28;20114;-78
2023/07/31 06:23:50;;;;;;;4.13;2.88;;;;;;;20.26;100.00;92882.03;5060451;28;20048;-81
2023/07/31 06:26:17;;;;;;;4.55;3.22;;;;;;;20.07;100.00;92884.59;5065215;28;20056;-81
2023/07/31 06:28:44;;;;;;;4.25;3.00;;;;;;;20.10;100.00;92866.59;5066100;28;20048;-80
2023/07/31 06:31:11;;;;;;;6.80;3.03;;;;;;;20.28;100.00;92872.13;5065017;28;20049;-81
2023/07/31 06:33:37;;;;;;;3.67;2.40;;;;;;;20.49;100.00;92882.28;5061864;28;20044;-82
2023/07/31 06:36:06;;;;;;;5.32;3.03;;;;;;;20.74;100.00;92881.19;5065548;28;20090;-80
2023/07/31 06:38:32;;;;;;;3.35;2.20;;;;;;;20.63;100.00;92872.75;5063119;28;20047;-81
2023/07/31 06:40:59;;;;;;;4.35;2.85;;;;;;;20.67;100.00;92873.75;5065987;28;20494;-81
2023/07/31 06:43:26;;;;;;;5.30;2.55;;;;;;;20.93;100.00;92870.03;5060102;28;20074;-80
2023/07/31 06:45:52;;;;;;;4.40;2.50;;;;;;;20.80;100.00;92879.31;5062851;28;20122;-81
2023/07/31 06:48:19;;;;;;;3.53;2.10;;;;;;;20.94;100.00;92876.81;5061029;28;20110;-80
2023/07/31 06:50:46;;;;;;;4.63;2.67;;;;;;;20.92;100.00;92881.53;5066258;28;20048;-79
2023/07/31 06:53:14;;;;;;;3.17;1.75;;;;;;;20.77;100.00;92878.03;5064566;28;20045;-81
2023/07/31 06:55:41;;;;;;;4.78;2.47;;;;;;;20.92;100.00;92879.69;5060838;28;20053;-81
2023/07/31 06:58:08;;;;;;;4.78;2.92;;;;;;;20.99;100.00;92874.13;5063005;28;20048;-80
2023/07/31 07:00:34;;;;;;;4.97;2.72;;;;;;;21.14;100.00;92880.16;5062333;28;20052;-77
2023/07/31 07:03:01;;;;;;;3.60;2.40;;;;;;;21.31;100.00;92877.06;5059735;28;20539;-78
2023/07/31 07:05:28;;;;;;;3.67;2.15;;;;;;;21.53;100.00;92852.94;5060577;28;20055;-80
2023/07/31 07:07:55;;;;;;;3.72;1.90;;;;;;;21.75;96.87;92854.16;5060603;28;20044;-80
2023/07/31 07:10:23;;;;;;;3.72;1.90;;;;;;;22.08;99.56;92858.56;5058157;28;20568;-79
2023/07/31 07:12:50;;;;;;;3.10;1.60;;;;;;;22.38;96.15;92864.25;5061226;28;20559;-79
2023/07/31 07:15:16;;;;;;;2.38;1.40;;;;;;;22.26;93.06;92876.00;5059644;28;20040;-84
2023/07/31 07:17:43;;;;;;;3.22;1.60;;;;;;;22.28;91.67;92867.88;5060595;28;20494;-82
2023/07/31 07:20:10;;;;;;;2.50;1.48;;;;;;;21.93;92.15;92863.00;5061209;28;20094;-82
2023/07/31 07:22:42;;;;;;;2.78;1.25;;;;;;;21.51;94.51;92843.84;5061516;28;20048;-82
2023/07/31 07:25:10;;;;;;;2.80;1.60;;;;;;;21.65;96.70;92842.00;5060410;28;20049;-82
2023/07/31 07:27:38;;;;;;;2.65;1.60;;;;;;;22.06;94.97;92858.84;5060752;28;20052;-84
2023/07/31 07:30:05;;;;;;;4.72;1.65;;;;;;;22.51;94.99;92857.47;5059998;28;20048;-81
2023/07/31 07:32:32;;;;;;;2.83;1.42;;;;;;;22.60;93.30;92860.19;5058928;28;20041;-83
2023/07/31 07:34:59;;;;;;;3.05;1.52;;;;;;;22.94;92.21;92856.34;5060038;28;20094;-81
2023/07/31 07:37:26;;;;;;;5.07;1.95;;;;;;;23.07;86.76;92860.00;5059858;28;20126;-78
2023/07/31 07:39:52;;;;;;;3.35;1.63;;;;;;;23.03;86.33;92875.53;5061620;28;20445;-78
2023/07/31 07:42:19;;;;;;;3.45;1.50;;;;;;;22.59;90.66;92838.47;5060615;28;20090;-80
2023/07/31 07:44:47;;;;;;;2.63;1.70;;;;;;;22.05;89.38;92830.38;5063811;28;20048;-79
2023/07/31 07:47:14;;;;;;;3.03;1.60;;;;;;;22.44;88.37;92873.56;5065012;28;20052;-79
2023/07/31 07:49:41;;;;;;;2.65;1.60;;;;;;;22.28;89.52;92860.00;5062337;28;20056;-81
2023/07/31 07:52:08;;;;;;;3.38;1.40;;;;;;;22.50;88.60;92869.00;5063316;28;20457;-81
2023/07/31 07:54:34;;;;;;;2.58;1.42;;;;;;;22.40;89.18;92860.28;5060146;28;20093;-81
2023/07/31 07:57:01;;;;;;;4.70;1.33;;;;;;;22.63;90.06;92883.94;5060827;28;20040;-80
2023/07/31 07:59:28;;;;;;;3.50;1.38;;;;;;;22.75;85.56;92870.34;5059664;28;20041;-80
2023/07/31 08:01:57;;;;;;;3.00;1.58;;;;;;;22.99;84.49;92887.66;5064366;28;20045;-82
2023/07/31 08:04:24;;;;;;;2.25;1.13;;;;;;;22.66;83.22;92869.50;5068850;28;20650;-82
2023/07/31 08:06:50;;;;;;;5.32;1.30;;;;;;;22.21;85.42;92857.03;5069552;28;20049;-82
2023/07/31 08:09:17;;;;;;;2.35;1.25;;;;;;;22.15;85.46;92885.88;5067942;28;20824;-81
2023/07/31 08:11:44;;;;;;;3.10;1.45;;;;;;;21.98;85.29;92891.69;5066631;28;20098;-82
2023/07/31 08:14:11;;;;;;;3.38;1.50;;;;;;;21.78;86.41;92884.97;5065336;28;20053;-81
2023/07/31 08:16:37;;;;;;;2.97;1.33;;;;;;;21.94;86.44;92856.69;5066620;28;20141;-81
2023/07/31 08:19:05;;;;;;;6.88;1.40;;;;;;;22.27;85.44;92867.06;5064177;28;20052;-80
2023/07/31 08:21:32;;;;;;;2.45;1.20;;;;;;;22.48;83.06;92889.44;5067261;28;20121;-83
2023/07/31 08:23:59;;;;;;;2.50;0.98;;;;;;;22.79;82.96;92873.16;5067157;28;20044;-83
2023/07/31 08:26:26;;;;;;;2.55;1.42;;;;;;;23.19;82.77;92889.06;5065322;28;20107;-81
2023/07/31 08:28:53;;;;;;;2.25;1.20;;;;;;;23.49;80.36;92886.84;5068012;28;20047;-81
2023/07/31 08:31:20;;;;;;;2.65;1.30;;;;;;;23.86;79.80;92865.75;5066535;28;20044;-81
2023/07/31 08:33:46;;;;;;;3.08;1.23;;;;;;;23.97;77.47;92889.88;5066988;28;20528;-82
2023/07/31 08:36:15;;;;;;;2.65;1.30;;;;;;;23.94;75.42;92892.31;5063202;28;20055;-81
2023/07/31 08:38:41;;;;;;;1.90;0.85;;;;;;;23.34;78.06;92887.19;5064523;28;20070;-81
2023/07/31 08:41:08;;;;;;;1.95;0.88;;;;;;;23.29;76.97;92893.28;5063713;28;20571;-82
2023/07/31 08:43:38;;;;;;;2.58;1.05;;;;;;;23.63;79.83;92870.25;5067156;28;20055;-81
2023/07/31 08:46:06;;;;;;;3.13;1.27;;;;;;;23.46;76.93;92889.25;5065743;28;20457;-82
2023/07/31 08:48:33;;;;;;;2.30;1.20;;;;;;;23.71;78.21;92887.13;5068052;28;20130;-80
2023/07/31 08:51:00;;;;;;;2.10;0.77;;;;;;;23.94;75.06;92879.19;5067200;28;20044;-81
2023/07/31 08:53:28;;;;;;;2.00;1.08;;;;;;;24.15;71.97;92874.22;5066939;28;20498;-80
2023/07/31 08:55:57;;;;;;;2.25;1.20;;;;;;;24.46;72.75;92881.28;5065141;28;20104;-82
2023/07/31 08:58:25;;;;;;;1.75;0.90;;;;;;;24.76;72.25;92876.22;5066439;28;20045;-78
2023/07/31 09:00:52;;;;;;;3.05;1.05;;;;;;;24.77;71.65;92875.16;5060582;28;20044;-80
2023/07/31 09:03:19;;;;;;;3.33;2.13;;;;;;;24.47;73.22;92868.91;5063430;28;20448;-82
2023/07/31 09:05:47;;;;;;;4.00;0.90;;;;;;;23.58;72.91;92884.28;5065550;28;20106;-81
2023/07/31 09:08:16;;;;;;;1.90;1.08;;;;;;;23.24;74.48;92854.13;5063284;28;20049;-81
2023/07/31 09:10:45;;;;;;;2.25;1.10;;;;;;;23.32;74.60;92874.38;5062299;28;20071;-83
2023/07/31 09:13:13;;;;;;;1.80;1.02;;;;;;;23.71;76.15;92863.50;5064298;28;20954;-82
2023/07/31 09:15:40;;;;;;;3.20;1.27;;;;;;;24.35;75.52;92870.28;5065815;28;20045;-80
2023/07/31 09:18:08;;;;;;;2.75;1.45;;;;;;;23.88;74.53;92868.06;5065936;28;20050;-78
2023/07/31 09:20:35;;;;;;;2.88;1.40;;;;;;;24.06;74.14;92868.91;5066786;28;20044;-80
2023/07/31 09:23:12;;;;;;;2.55;1.30;;;;;;;24.11;73.29;92866.19;5064657;28;20057;-81
2023/07/31 09:25:40;;;;;;;4.68;1.30;;;;;;;24.42;74.68;92868.00;5065631;28;20048;-82
2023/07/31 09:28:10;;;;;;;2.80;1.20;;;;;;;24.67;73.59;92847.34;5064827;28;20098;-80
2023/07/31 09:30:48;;;;;;;3.92;0.88;;;;;;;24.91;71.29;92856.66;5063113;28;20410;-80
2023/07/31 09:33:15;;;;;;;2.10;1.10;;;;;;;24.80;70.79;92844.88;5065143;28;20076;-80
2023/07/31 09:35:42;;;;;;;2.30;1.10;;;;;;;24.72;69.82;92835.94;5066200;28;20490;-79
2023/07/31 09:38:11;;;;;;;2.55;1.42;;;;;;;25.06;68.24;92842.28;5063503;28;20103;-80
2023/07/31 09:40:39;;;;;;;2.85;1.30;;;;;;;25.59;68.72;92857.28;5066297;28;20048;-80
2023/07/31 09:43:10;;;;;;;2.10;1.00;;;;;;;25.24;69.16;92849.38;5063592;28;20102;-80
2023/07/31 09:45:38;;;;;;;1.77;1.00;;;;;;;25.28;69.94;92852.94;5062514;28;20052;-79
2023/07/31 09:48:08;;;;;;;2.80;1.52;;;;;;;24.34;69.56;92852.22;5063443;28;20109;-81
2023/07/31 09:50:38;;;;;;;2.38;1.20;;;;;;;24.43;70.51;92863.50;5064205;28;20048;-80
2023/07/31 09:53:06;;;;;;;3.05;1.63;;;;;;;24.67;69.22;92854.47;5064484;28;20410;-79
2023/07/31 09:55:33;;;;;;;2.05;1.30;;;;;;;24.74;70.26;92853.97;5068724;28;20513;-82
2023/07/31 09:58:00;;;;;;;2.45;1.33;;;;;;;24.36;68.92;92850.84;5067940;28;20044;-81
2023/07/31 10:00:31;;;;;;;2.97;1.42;;;;;;;24.64;69.98;92847.97;5066308;28;20412;-79
2023/07/31 10:02:59;;;;;;;2.03;1.27;;;;;;;24.19;69.64;92853.38;5066077;28;20513;-81
2023/07/31 10:05:32;;;;;;;2.10;1.17;;;;;;;24.34;69.69;92855.59;5063726;28;20441;-80
2023/07/31 10:07:59;;;;;;;2.83;1.48;;;;;;;24.50;69.52;92852.56;5065181;28;20159;-81
2023/07/31 10:10:27;;;;;;;2.00;1.05;;;;;;;24.54;67.57;92850.88;5064816;28;20414;-81
2023/07/31 10:12:55;;;;;;;3.08;1.73;;;;;;;24.25;69.23;92846.94;5066011;28;20426;-79
2023/07/31 10:15:22;;;;;;;3.03;0.98;;;;;;;24.50;68.91;92842.84;5064787;28;20052;-80
2023/07/31 10:17:51;;;;;;;2.78;1.27;;;;;;;24.93;70.43;92819.56;5066768;28;20399;-80
2023/07/31 10:20:18;;;;;;;2.03;1.25;;;;;;;25.56;67.12;92845.50;5063730;28;20048;-81
2023/07/31 10:22:46;;;;;;;3.88;1.30;;;;;;;26.10;64.88;92825.06;5066957;28;21003;-79
2023/07/31 10:25:13;;;;;;;2.08;0.98;;;;;;;26.38;61.12;92828.03;5061477;28;20151;-79
2023/07/31 10:27:40;;;;;;;2.10;1.02;;;;;;;26.42;63.83;92844.75;5062453;28;20113;-79
2023/07/31 10:30:10;;;;;;;1.98;1.05;;;;;;;25.77;61.73;92760.66;5064548;28;20053;-79
2023/07/31 10:32:39;;;;;;;1.70;0.90;;;;;;;26.65;61.99;92841.81;5064583;28;20437;-79
2023/07/31 10:35:09;;;;;;;2.72;1.20;;;;;;;26.41;59.39;92827.41;5064489;28;20052;-81
2023/07/31 10:37:38;;;;;;;2.00;1.30;;;;;;;26.78;60.44;92837.41;5064122;28;20537;-80
2023/07/31 10:40:07;;;;;;;2.03;1.00;;;;;;;26.38;56.99;92819.38;5063174;28;20052;-80
2023/07/31 10:42:36;;;;;;;3.63;1.10;;;;;;;26.21;57.40;92809.66;5061315;28;20044;-80
2023/07/31 10:45:05;;;;;;;2.22;0.90;;;;;;;26.44;59.13;92818.09;5062068;28;20049;-80
2023/07/31 10:47:32;;;;;;;2.60;1.15;;;;;;;26.51;58.19;92820.19;5065011;28;20064;-78
2023/07/31 10:50:19;;;;;;;2.10;1.05;;;;;;;26.31;58.30;92814.59;5061971;28;20048;-80
2023/07/31 10:52:50;;;;;;;2.17;1.00;;;;;;;26.07;58.59;92823.06;5063281;28;20049;-79
2023/07/31 10:55:25;;;;;;;2.22;1.00;;;;;;;26.17;58.22;92824.53;5067213;28;20464;-80
2023/07/31 10:57:54;;;;;;;;;;;;;;;26.09;58.51;92818.22;5063505;28;20093;-79
2023/07/31 11:00:23;;;;;;;2.08;0.95;;;;;;;26.14;60.13;92815.44;5064339;28;19925;-78
2023/07/31 11:03:04;;;;;;;1.73;0.82;;;;;;;26.62;58.63;92810.09;5065028;28;20780;-78
2023/07/31 11:05:47;;;;;;;2.35;1.25;;;;;;;26.95;57.13;92823.34;5062226;28;20064;-79
2023/07/31 11:08:16;;;;;;;2.13;1.05;;;;;;;27.06;57.37;92807.91;5062073;28;20053;-79
2023/07/31 11:10:44;;;;;;;2.75;0.82;;;;;;;27.64;54.50;92813.59;5062708;28;20043;-79
2023/07/31 11:13:11;;;;;;;3.65;1.15;;;;;;;27.88;53.04;92805.72;5064411;28;20499;-77
2023/07/31 11:15:38;;;;;;;2.28;0.80;;;;;;;27.92;48.07;92805.84;5063669;28;20891;-79
2023/07/31 11:18:05;;;;;;;2.33;0.90;;;;;;;27.40;50.83;92810.53;5065055;28;20389;-80
2023/07/31 11:20:33;;;;;;;1.80;0.80;;;;;;;27.62;52.76;92811.28;5062883;28;20049;-78
2023/07/31 11:23:03;;;;;;;1.75;0.80;;;;;;;27.32;53.33;92785.78;5064758;28;20052;-79